Time;durP1;ratioP1;P1;durP2;ratioP2;P2;SDS_P1;SDS_P2;PMS_P1;PMS_P2;Temp;Humidity;BMP_temperature;BMP_pressure;BME280_temperature;BME280_humidity;BME280_pressure;Samples;Min_cycle;Max_cycle;Signal;HPM_P1;HPM_P2
2022/07/24 00:02:17;;;;;;;9.82;6.72;;;;;;;20.88;86.99;96231.09;5030232;28;24455;-72
2022/07/24 00:04:44;;;;;;;7.47;6.60;;;;;;;20.94;86.32;96233.09;5030426;28;24834;-74
2022/07/24 00:07:10;;;;;;;8.27;6.35;;;;;;;21.05;85.50;96228.59;5029469;28;24436;-73
2022/07/24 00:09:36;;;;;;;8.32;6.82;;;;;;;21.51;83.59;96235.47;5022730;28;25043;-73
2022/07/24 00:12:03;;;;;;;9.32;6.95;;;;;;;20.97;85.86;96237.25;5028073;28;24440;-72
2022/07/24 00:14:31;;;;;;;8.95;7.03;;;;;;;20.85;85.42;96226.09;5029870;28;24448;-72
2022/07/24 00:16:57;;;;;;;7.85;7.05;;;;;;;20.93;83.89;96226.19;5024362;28;24849;-72
2022/07/24 00:19:24;;;;;;;7.28;6.47;;;;;;;21.03;83.05;96228.75;5024655;28;25024;-73
2022/07/24 00:21:50;;;;;;;7.50;6.43;;;;;;;21.05;83.99;96229.44;5029555;28;24471;-72
2022/07/24 00:24:17;;;;;;;7.05;6.13;;;;;;;21.11;84.79;96230.66;5030044;28;24794;-73
2022/07/24 00:26:43;;;;;;;9.17;6.33;;;;;;;21.14;82.68;96225.91;5029518;28;24995;-72
2022/07/24 00:29:10;;;;;;;10.90;7.07;;;;;;;20.93;82.68;96226.19;5025949;28;24439;-72
2022/07/24 00:31:37;;;;;;;9.90;6.63;;;;;;;21.07;80.03;96226.66;5028370;28;24509;-72
2022/07/24 00:34:04;;;;;;;6.37;5.23;;;;;;;21.13;74.92;96221.59;5028546;28;24447;-73
2022/07/24 00:36:30;;;;;;;6.32;5.22;;;;;;;21.29;75.42;96217.47;5022953;28;24443;-72
2022/07/24 00:38:57;;;;;;;7.88;6.97;;;;;;;21.35;78.60;96214.25;5026314;28;24435;-72
2022/07/24 00:41:23;;;;;;;10.50;6.85;;;;;;;21.25;80.46;96219.59;5029041;28;24439;-72
2022/07/24 00:44:01;;;;;;;8.30;6.75;;;;;;;21.32;80.00;96223.28;5029686;28;24439;-73
2022/07/24 00:46:28;;;;;;;10.15;7.32;;;;;;;21.21;80.40;96218.19;5023135;28;24443;-72
2022/07/24 00:48:56;;;;;;;8.15;6.47;;;;;;;20.95;81.71;96218.97;5026085;28;25056;-72
2022/07/24 00:51:23;;;;;;;7.10;6.38;;;;;;;20.91;81.27;96219.41;5029385;28;24986;-72
2022/07/24 00:53:49;;;;;;;8.30;5.50;;;;;;;20.94;80.53;96217.31;5018456;28;24440;-72
2022/07/24 00:56:16;;;;;;;10.40;6.80;;;;;;;21.10;82.59;96219.28;5021918;28;24448;-72
2022/07/24 00:58:42;;;;;;;6.57;5.95;;;;;;;20.96;82.29;96217.16;5024742;28;24444;-72
2022/07/24 01:01:09;;;;;;;10.15;6.10;;;;;;;20.92;81.82;96219.28;5029961;28;24440;-72
2022/07/24 01:03:35;;;;;;;7.70;5.97;;;;;;;20.98;81.19;96215.19;5018306;28;24428;-72
2022/07/24 01:06:03;;;;;;;6.53;5.80;;;;;;;20.98;82.33;96220.47;5025294;28;24447;-72
2022/07/24 01:08:30;;;;;;;7.05;6.10;;;;;;;20.83;83.42;96217.50;5028439;28;24438;-72
2022/07/24 01:10:56;;;;;;;6.88;6.18;;;;;;;20.83;82.82;96214.88;5031479;28;24851;-72
2022/07/24 01:13:23;;;;;;;9.07;6.53;;;;;;;20.74;82.76;96215.78;5027939;28;24440;-72
2022/07/24 01:15:50;;;;;;;6.77;5.57;;;;;;;20.80;82.65;96202.00;5019060;28;25049;-72
2022/07/24 01:18:17;;;;;;;7.47;6.07;;;;;;;20.85;83.02;96207.69;5027574;28;24443;-72
2022/07/24 01:20:47;;;;;;;8.02;6.55;;;;;;;20.81;82.82;96208.13;5026647;28;24711;-72
2022/07/24 01:23:14;;;;;;;7.45;6.32;;;;;;;20.85;82.39;96206.84;5030656;28;24436;-72
2022/07/24 01:25:41;;;;;;;9.02;6.28;;;;;;;20.76;83.41;96203.28;5022501;28;24563;-72
2022/07/24 01:28:07;;;;;;;7.18;6.20;;;;;;;20.78;83.32;96198.72;5025443;28;24511;-72
2022/07/24 01:30:34;;;;;;;8.07;6.30;;;;;;;20.67;83.47;96212.09;5030919;28;24439;-72
2022/07/24 01:33:01;;;;;;;7.30;6.32;;;;;;;20.65;83.80;96201.69;5025452;28;24432;-72
2022/07/24 01:35:27;;;;;;;7.00;5.85;;;;;;;20.66;83.97;96208.63;5029464;28;24466;-72
2022/07/24 01:37:55;;;;;;;9.80;6.53;;;;;;;20.69;83.86;96208.34;5030041;28;25071;-72
2022/07/24 01:40:22;;;;;;;6.57;5.78;;;;;;;20.60;83.28;96211.84;5027918;28;24861;-72
2022/07/24 01:42:49;;;;;;;8.57;6.25;;;;;;;20.60;83.93;96200.50;5022451;28;24440;-72
2022/07/24 01:45:15;;;;;;;8.00;5.95;;;;;;;20.62;83.82;96209.91;5022938;28;24482;-72
2022/07/24 01:47:43;;;;;;;7.10;5.60;;;;;;;20.59;83.53;96207.56;5028800;28;24451;-72
2022/07/24 01:50:10;;;;;;;8.93;6.20;;;;;;;20.53;84.17;96206.34;5024236;28;24468;-72
2022/07/24 01:52:36;;;;;;;6.53;5.85;;;;;;;20.53;83.62;96206.34;5024780;28;24436;-72
2022/07/24 01:55:05;;;;;;;7.55;6.03;;;;;;;20.52;84.41;96206.50;5028820;28;24543;-72
2022/07/24 01:57:32;;;;;;;7.43;5.70;;;;;;;20.51;84.46;96203.03;5024426;28;24451;-72
2022/07/24 01:59:59;;;;;;;7.45;6.05;;;;;;;20.46;84.48;96199.16;5030531;28;24447;-72
2022/07/24 02:02:25;;;;;;;6.85;6.10;;;;;;;20.43;84.66;96202.06;5025575;28;24490;-72
2022/07/24 02:04:52;;;;;;;9.23;6.40;;;;;;;20.38;85.44;96199.88;5031122;28;24444;-72
2022/07/24 02:07:19;;;;;;;7.60;6.67;;;;;;;20.32;85.61;96197.84;5030136;28;24499;-72
2022/07/24 02:09:45;;;;;;;7.22;6.07;;;;;;;20.25;85.75;96202.88;5033747;28;24969;-72
2022/07/24 02:12:13;;;;;;;7.05;5.95;;;;;;;20.14;86.89;96197.78;5030918;28;24444;-72
2022/07/24 02:14:40;;;;;;;7.20;6.45;;;;;;;20.17;86.03;96205.41;5033477;28;24989;-72
2022/07/24 02:17:07;;;;;;;7.28;5.72;;;;;;;20.11;86.64;96203.34;5034087;28;24436;-72
2022/07/24 02:19:33;;;;;;;6.90;6.25;;;;;;;20.04;87.48;96199.63;5028266;28;24443;-72
2022/07/24 02:21:59;;;;;;;7.72;6.50;;;;;;;19.98;87.25;96198.38;5032508;28;24826;-72
2022/07/24 02:24:29;;;;;;;7.57;6.37;;;;;;;19.94;87.98;96202.28;5033411;28;24449;-72
2022/07/24 02:26:55;;;;;;;10.63;6.65;;;;;;;19.96;88.02;96210.03;5026900;28;24443;-72
2022/07/24 02:29:23;;;;;;;7.78;6.20;;;;;;;19.95;88.13;96206.59;5025601;28;24448;-72
2022/07/24 02:31:49;;;;;;;7.30;6.57;;;;;;;19.94;88.26;96204.09;5030803;28;24436;-72
2022/07/24 02:34:16;;;;;;;8.25;6.75;;;;;;;19.92;87.72;96201.59;5033862;28;25129;-72
2022/07/24 02:36:42;;;;;;;6.70;5.93;;;;;;;19.98;87.30;96205.44;5024397;28;25016;-72
2022/07/24 02:39:09;;;;;;;7.32;5.60;;;;;;;19.88;86.77;96202.88;5033309;28;24443;-72
2022/07/24 02:41:35;;;;;;;7.22;6.53;;;;;;;19.85;87.50;96205.78;5031217;28;24526;-72
2022/07/24 02:44:02;;;;;;;7.18;6.30;;;;;;;19.83;87.92;96205.06;5023834;28;24448;-72
2022/07/24 02:46:29;;;;;;;9.23;6.55;;;;;;;19.82;87.82;96204.25;5030052;28;24436;-72
2022/07/24 02:48:56;;;;;;;7.35;6.55;;;;;;;19.88;87.71;96205.50;5032565;28;24431;-72
2022/07/24 02:51:22;;;;;;;8.77;6.43;;;;;;;19.88;87.56;96205.50;5025190;28;24515;-72
2022/07/24 02:53:49;;;;;;;10.27;6.13;;;;;;;19.88;87.41;96205.50;5028841;28;24436;-72
2022/07/24 02:56:15;;;;;;;6.22;5.70;;;;;;;19.85;86.45;96213.66;5030730;28;25028;-72
2022/07/24 02:58:41;;;;;;;8.40;6.95;;;;;;;19.74;86.60;96208.56;5032124;28;24446;-72
2022/07/24 03:01:08;;;;;;;6.47;5.82;;;;;;;19.63;87.39;96206.94;5021869;28;24965;-72
2022/07/24 03:03:36;;;;;;;7.13;6.43;;;;;;;19.71;87.61;96214.94;5026398;28;24490;-72
2022/07/24 03:06:02;;;;;;;6.30;5.70;;;;;;;19.74;87.24;96212.03;5033347;28;24855;-72
2022/07/24 03:08:28;;;;;;;9.00;6.55;;;;;;;19.77;86.55;96203.88;5032531;28;24992;-72
2022/07/24 03:10:55;;;;;;;7.10;6.40;;;;;;;19.71;87.23;96199.16;5027741;28;24436;-72
2022/07/24 03:13:21;;;;;;;7.03;6.22;;;;;;;19.76;87.23;96201.34;5033147;28;24447;-72
2022/07/24 03:15:48;;;;;;;7.95;6.15;;;;;;;19.74;86.23;96203.31;5030192;28;24472;-72
2022/07/24 03:18:14;;;;;;;7.32;6.32;;;;;;;19.78;86.04;96205.50;5025611;28;24457;-72
2022/07/24 03:20:42;;;;;;;7.78;6.35;;;;;;;19.91;84.86;96204.38;5032305;28;24442;-72
2022/07/24 03:23:08;;;;;;;7.15;6.45;;;;;;;19.69;86.63;96202.91;5033316;28;24448;-72
2022/07/24 03:25:35;;;;;;;8.25;6.47;;;;;;;19.58;87.73;96217.03;5032668;28;24440;-72
2022/07/24 03:28:01;;;;;;;7.85;6.50;;;;;;;19.40;88.92;96221.31;5032771;28;24837;-72
2022/07/24 03:30:28;;;;;;;6.97;6.18;;;;;;;19.13;90.83;96220.19;5029880;28;25031;-72
2022/07/24 03:32:54;;;;;;;7.10;6.40;;;;;;;18.96;91.44;96213.84;5029384;28;24431;-72
2022/07/24 03:35:21;;;;;;;7.85;6.57;;;;;;;18.97;91.82;96214.69;5029686;28;25367;-72
2022/07/24 03:37:49;;;;;;;7.38;6.55;;;;;;;18.97;92.30;96212.88;5026951;28;24802;-72
2022/07/24 03:40:15;;;;;;;9.57;6.80;;;;;;;18.80;94.05;96214.41;5030884;28;24984;-73
2022/07/24 03:42:42;;;;;;;7.40;6.70;;;;;;;18.65;95.45;96213.09;5029775;28;24451;-73
2022/07/24 03:45:09;;;;;;;7.63;6.82;;;;;;;18.65;96.20;96220.13;5027264;28;24498;-73
2022/07/24 03:47:36;;;;;;;8.73;7.63;;;;;;;18.81;93.83;96217.84;5023271;28;24440;-73
2022/07/24 03:50:03;;;;;;;7.07;6.13;;;;;;;18.80;94.46;96213.53;5029743;28;24849;-73
2022/07/24 03:52:29;;;;;;;7.13;6.38;;;;;;;18.62;95.39;96211.56;5027172;28;24444;-73
2022/07/24 03:54:57;;;;;;;7.25;6.43;;;;;;;18.62;95.09;96219.44;5021620;28;24514;-73
2022/07/24 03:57:24;;;;;;;7.17;6.47;;;;;;;18.60;95.78;96216.13;5024873;28;24448;-73
2022/07/24 03:59:50;;;;;;;8.00;7.20;;;;;;;18.58;95.16;96220.69;5027949;28;25065;-73
2022/07/24 04:02:17;;;;;;;7.90;6.78;;;;;;;18.45;97.37;96227.94;5027546;28;24440;-73
2022/07/24 04:04:43;;;;;;;7.45;6.00;;;;;;;18.41;98.04;96223.94;5030867;28;24439;-74
2022/07/24 04:07:09;;;;;;;7.30;6.60;;;;;;;18.47;97.32;96223.41;5031327;28;24447;-74
2022/07/24 04:09:36;;;;;;;7.75;6.68;;;;;;;18.54;97.42;96227.16;5031237;28;24439;-73
2022/07/24 04:12:04;;;;;;;8.93;6.90;;;;;;;18.58;97.11;96232.97;5031041;28;24432;-74
2022/07/24 04:14:32;;;;;;;8.75;6.10;;;;;;;18.62;96.95;96229.94;5029778;28;24432;-74
2022/07/24 04:16:58;;;;;;;8.43;5.90;;;;;;;18.74;96.13;96237.72;5025672;28;24448;-74
2022/07/24 04:19:25;;;;;;;6.07;5.57;;;;;;;18.85;95.68;96242.84;5022407;28;24447;-74
2022/07/24 04:21:51;;;;;;;6.68;5.72;;;;;;;18.86;96.40;96237.47;5028053;28;24486;-74
2022/07/24 04:24:17;;;;;;;7.53;6.72;;;;;;;19.04;96.54;96242.88;5031495;28;24442;-74
2022/07/24 04:26:44;;;;;;;7.10;6.37;;;;;;;19.00;96.96;96246.75;5028454;28;24517;-74
2022/07/24 04:29:12;;;;;;;7.43;6.50;;;;;;;18.96;97.12;96240.09;5030962;28;24850;-74
2022/07/24 04:31:38;;;;;;;6.80;6.10;;;;;;;18.89;98.30;96243.41;5025544;28;24439;-74
2022/07/24 04:34:04;;;;;;;8.52;6.95;;;;;;;18.88;98.73;96247.00;5030077;28;24444;-74
2022/07/24 04:36:31;;;;;;;7.50;6.80;;;;;;;18.87;99.50;96246.16;5029645;28;24514;-74
2022/07/24 04:38:58;;;;;;;7.13;6.35;;;;;;;19.01;98.93;96245.75;5030812;28;24523;-74
2022/07/24 04:41:24;;;;;;;8.27;7.03;;;;;;;19.05;99.99;96246.31;5025202;28;24842;-73
2022/07/24 04:43:51;;;;;;;7.60;6.28;;;;;;;19.09;99.15;96242.47;5030414;28;24432;-74
2022/07/24 04:46:19;;;;;;;7.57;6.80;;;;;;;19.14;98.06;96242.88;5025076;28;24482;-74
2022/07/24 04:48:46;;;;;;;8.00;6.20;;;;;;;19.28;97.00;96246.88;5030757;28;24798;-74
2022/07/24 04:51:13;;;;;;;7.50;6.78;;;;;;;19.32;95.72;96245.66;5024562;28;24474;-74
2022/07/24 04:53:39;;;;;;;7.43;6.55;;;;;;;19.30;97.00;96244.97;5025334;28;24451;-74
2022/07/24 04:56:06;;;;;;;7.72;6.43;;;;;;;19.30;96.35;96245.78;5027106;28;24523;-74
2022/07/24 04:58:33;;;;;;;8.40;6.25;;;;;;;19.41;95.84;96251.88;5029384;28;24440;-73
2022/07/24 05:00:59;;;;;;;7.65;6.90;;;;;;;19.53;93.17;96251.56;5027824;28;24798;-74
2022/07/24 05:03:27;;;;;;;8.85;7.30;;;;;;;19.62;92.02;96257.84;5028028;28;24485;-73
2022/07/24 05:05:54;;;;;;;10.07;7.45;;;;;;;19.71;90.76;96250.91;5027851;28;24783;-74
2022/07/24 05:08:20;;;;;;;8.88;7.40;;;;;;;19.71;89.60;96245.66;5029932;28;24507;-74
2022/07/24 05:10:47;;;;;;;7.93;7.13;;;;;;;19.75;90.18;96250.47;5029940;28;24444;-74
2022/07/24 05:13:13;;;;;;;9.80;6.45;;;;;;;19.79;90.17;96257.09;5025867;28;24439;-73
2022/07/24 05:15:40;;;;;;;8.95;6.63;;;;;;;19.75;89.27;96253.09;5028612;28;24860;-73
2022/07/24 05:18:06;;;;;;;7.50;6.63;;;;;;;19.81;89.21;96259.59;5026292;28;25031;-74
2022/07/24 05:20:34;;;;;;;8.05;7.13;;;;;;;19.76;88.42;96259.19;5028716;28;24793;-74
2022/07/24 05:23:00;;;;;;;7.60;6.47;;;;;;;19.85;88.00;96253.09;5031092;28;25054;-74
2022/07/24 05:25:27;;;;;;;8.32;6.45;;;;;;;20.05;87.00;96259.94;5020972;28;24420;-74
2022/07/24 05:27:53;;;;;;;7.35;6.43;;;;;;;20.28;84.98;96252.56;5031163;28;24447;-74
2022/07/24 05:30:20;;;;;;;7.22;6.20;;;;;;;20.29;82.99;96246.31;5021062;28;24440;-74
2022/07/24 05:32:47;;;;;;;6.70;5.93;;;;;;;20.40;82.32;96245.31;5031444;28;24439;-74
2022/07/24 05:35:13;;;;;;;7.38;6.22;;;;;;;20.58;81.32;96248.03;5030230;28;24447;-73
2022/07/24 05:37:41;;;;;;;7.75;6.20;;;;;;;20.55;81.01;96245.69;5024917;28;24436;-73
2022/07/24 05:40:08;;;;;;;10.20;6.60;;;;;;;20.53;79.95;96240.53;5014388;28;24440;-74
2022/07/24 05:42:35;;;;;;;8.45;6.40;;;;;;;20.70;79.29;96243.38;5034466;28;24424;-73
2022/07/24 05:45:01;;;;;;;7.45;6.55;;;;;;;20.59;78.88;96236.50;5034850;28;24419;-73
2022/07/24 05:47:28;;;;;;;7.05;6.32;;;;;;;20.84;79.24;96240.25;5034994;28;24443;-74
2022/07/24 05:49:54;;;;;;;7.17;6.43;;;;;;;20.75;77.40;96241.13;5034999;28;24444;-73
2022/07/24 05:52:21;;;;;;;9.30;6.40;;;;;;;20.73;77.64;96243.09;5034867;28;24451;-73
2022/07/24 05:54:49;;;;;;;9.60;6.90;;;;;;;20.77;77.86;96247.09;5031426;28;24509;-73
2022/07/24 05:57:15;;;;;;;7.75;5.95;;;;;;;20.82;78.08;96242.19;5031490;28;24459;-74
2022/07/24 05:59:41;;;;;;;6.78;6.03;;;;;;;20.95;77.79;96247.09;5033238;28;24446;-74
2022/07/24 06:02:08;;;;;;;7.82;6.47;;;;;;;21.06;76.90;96238.16;5031530;28;24443;-73
2022/07/24 06:04:35;;;;;;;8.23;6.32;;;;;;;21.22;76.10;96238.31;5034143;28;24794;-73
2022/07/24 06:07:02;;;;;;;7.82;6.32;;;;;;;21.26;75.64;96244.94;5034385;28;25030;-74
2022/07/24 06:09:28;;;;;;;8.10;6.25;;;;;;;21.34;74.40;96245.03;5031221;28;24443;-73
2022/07/24 06:11:56;;;;;;;8.65;6.40;;;;;;;21.28;74.32;96240.34;5029781;28;24440;-73
2022/07/24 06:14:23;;;;;;;9.50;6.35;;;;;;;21.53;74.92;96237.94;5032730;28;24431;-73
2022/07/24 06:16:49;;;;;;;10.35;6.15;;;;;;;21.88;74.38;96243.16;5029426;28;24463;-73
2022/07/24 06:19:15;;;;;;;9.43;6.50;;;;;;;21.95;72.66;96252.13;5033802;28;24439;-73
2022/07/24 06:21:42;;;;;;;6.85;6.05;;;;;;;22.23;70.78;96244.06;5033331;28;24431;-73
2022/07/24 06:24:09;;;;;;;6.90;6.15;;;;;;;22.29;70.16;96242.63;5033447;28;24451;-73
2022/07/24 06:26:35;;;;;;;8.55;6.20;;;;;;;22.40;69.67;96242.34;5027813;28;24436;-74
2022/07/24 06:29:03;;;;;;;6.43;5.78;;;;;;;22.46;67.44;96241.69;5030283;28;24436;-73
2022/07/24 06:31:29;;;;;;;7.30;6.05;;;;;;;22.65;67.35;96240.59;5033203;28;24837;-73
2022/07/24 06:33:56;;;;;;;6.55;5.78;;;;;;;22.72;66.75;96244.25;5032171;28;24439;-74
2022/07/24 06:36:22;;;;;;;6.32;5.55;;;;;;;22.75;65.97;96241.31;5033798;28;25051;-73
2022/07/24 06:38:49;;;;;;;6.63;5.73;;;;;;;23.07;66.42;96237.13;5032805;28;24833;-73
2022/07/24 06:41:16;;;;;;;6.85;5.78;;;;;;;23.11;65.68;96244.56;5033792;28;24498;-74
2022/07/24 06:43:42;;;;;;;9.18;6.13;;;;;;;23.20;63.97;96237.47;5031543;28;24435;-73
2022/07/24 06:46:10;;;;;;;6.90;5.45;;;;;;;23.12;63.24;96235.66;5032600;28;24439;-74
2022/07/24 06:48:37;;;;;;;6.90;6.00;;;;;;;23.38;64.02;96237.31;5030478;28;24993;-73
2022/07/24 06:51:04;;;;;;;7.15;6.03;;;;;;;23.79;62.41;96232.88;5033504;28;24443;-73
2022/07/24 06:53:31;;;;;;;7.30;5.72;;;;;;;24.12;62.07;96232.84;5024451;28;24854;-73
2022/07/24 06:55:57;;;;;;;10.60;6.10;;;;;;;24.50;62.27;96235.72;5028931;28;24478;-73
2022/07/24 06:58:24;;;;;;;6.85;5.75;;;;;;;24.71;59.28;96230.66;5028108;28;24443;-73
2022/07/24 07:00:51;;;;;;;8.83;6.00;;;;;;;24.95;59.07;96242.94;5032882;28;24531;-73
2022/07/24 07:03:19;;;;;;;6.63;5.63;;;;;;;25.19;57.44;96233.25;5028368;28;24858;-73
2022/07/24 07:05:45;;;;;;;6.97;5.28;;;;;;;25.47;55.60;96229.03;5021660;28;24500;-73
2022/07/24 07:08:12;;;;;;;6.70;6.00;;;;;;;25.46;54.09;96234.53;5029607;28;24997;-74
2022/07/24 07:10:38;;;;;;;8.68;5.40;;;;;;;25.39;53.25;96230.94;5024976;28;24459;-73
2022/07/24 07:13:05;;;;;;;6.05;5.55;;;;;;;25.65;53.36;96227.91;5033256;28;24554;-73
2022/07/24 07:15:31;;;;;;;6.15;5.55;;;;;;;25.64;53.45;96231.59;5031364;28;24440;-73
2022/07/24 07:17:58;;;;;;;7.90;5.53;;;;;;;25.84;51.90;96232.75;5032420;28;24455;-74
2022/07/24 07:20:25;;;;;;;8.07;5.28;;;;;;;25.27;49.52;96236.66;5032136;28;25178;-73
2022/07/24 07:22:52;;;;;;;6.43;4.90;;;;;;;25.47;49.89;96233.53;5028761;28;24437;-73
2022/07/24 07:25:18;;;;;;;7.97;5.43;;;;;;;25.58;49.55;96233.94;5033009;28;24446;-74
2022/07/24 07:27:45;;;;;;;9.45;5.05;;;;;;;25.79;50.45;96237.78;5032314;28;25000;-73
2022/07/24 07:30:12;;;;;;;8.63;5.53;;;;;;;25.78;49.43;96226.34;5029272;28;24436;-73
2022/07/24 07:32:38;;;;;;;6.60;5.50;;;;;;;25.99;49.19;96238.06;5027728;28;24585;-73
2022/07/24 07:35:06;;;;;;;6.75;5.25;;;;;;;25.92;49.57;96232.69;5030319;28;24439;-73
2022/07/24 07:37:33;;;;;;;6.43;4.97;;;;;;;26.24;50.91;96234.16;5028904;28;24464;-72
2022/07/24 07:40:00;;;;;;;9.00;5.20;;;;;;;26.18;49.28;96231.41;5031150;28;24444;-73
2022/07/24 07:42:26;;;;;;;5.82;5.22;;;;;;;25.88;50.77;96235.88;5024110;28;24501;-73
2022/07/24 07:44:53;;;;;;;7.72;5.25;;;;;;;26.32;49.59;96238.56;5029424;28;24447;-74
2022/07/24 07:47:20;;;;;;;7.28;5.18;;;;;;;26.20;46.47;96232.88;5023718;28;24462;-73
2022/07/24 07:49:46;;;;;;;5.35;4.75;;;;;;;26.41;48.02;96226.84;5026847;28;24572;-73
2022/07/24 07:52:13;;;;;;;8.05;4.95;;;;;;;26.44;46.41;96230.97;5031235;28;24834;-73
2022/07/24 07:54:40;;;;;;;6.75;4.70;;;;;;;25.65;47.56;96233.22;5023937;28;24451;-71
2022/07/24 07:57:07;;;;;;;7.68;4.90;;;;;;;25.85;46.96;96231.75;5028309;28;24503;-74
2022/07/24 07:59:33;;;;;;;6.83;5.33;;;;;;;25.82;47.47;96232.13;5026703;28;24967;-74
2022/07/24 08:02:00;;;;;;;6.10;5.03;;;;;;;25.99;48.81;96235.44;5031000;28;24437;-73
2022/07/24 08:04:26;;;;;;;6.10;4.90;;;;;;;26.09;46.87;96237.81;5031599;28;24512;-73
2022/07/24 08:06:52;;;;;;;5.35;4.38;;;;;;;26.54;45.69;96228.88;5022301;28;24440;-74
2022/07/24 08:09:20;;;;;;;8.10;4.97;;;;;;;26.75;46.72;96231.59;5028375;28;24481;-73
2022/07/24 08:11:48;;;;;;;8.25;5.30;;;;;;;27.25;46.26;96231.78;5024227;28;24454;-73
2022/07/24 08:14:15;;;;;;;6.05;4.72;;;;;;;27.71;43.83;96226.91;5031862;28;24455;-74
2022/07/24 08:16:41;;;;;;;5.57;4.70;;;;;;;27.83;42.52;96229.06;5030735;28;24463;-74
2022/07/24 08:19:08;;;;;;;9.13;5.47;;;;;;;27.64;43.11;96225.19;5029558;28;24833;-73
2022/07/24 08:21:35;;;;;;;5.63;4.67;;;;;;;26.87;44.31;96225.81;5029875;28;24471;-73
2022/07/24 08:24:01;;;;;;;6.97;4.90;;;;;;;27.40;44.34;96221.06;5029480;28;24466;-73
2022/07/24 08:26:30;;;;;;;7.43;5.38;;;;;;;27.66;43.05;96225.81;5027739;28;25060;-73
2022/07/24 08:28:58;;;;;;;6.45;4.90;;;;;;;26.86;44.32;96219.69;5030069;28;24475;-73
2022/07/24 08:31:25;;;;;;;10.55;5.22;;;;;;;27.32;44.52;96216.72;5030781;28;24536;-73
2022/07/24 08:33:52;;;;;;;5.85;4.97;;;;;;;28.16;44.70;96211.47;5026801;28;24448;-73
2022/07/24 08:36:18;;;;;;;5.73;4.83;;;;;;;28.34;42.76;96207.50;5029747;28;24440;-73
2022/07/24 08:38:44;;;;;;;6.57;5.03;;;;;;;28.59;40.98;96210.50;5031347;28;24443;-73
2022/07/24 08:41:12;;;;;;;5.82;4.90;;;;;;;28.15;41.24;96203.69;5025591;28;24448;-73
2022/07/24 08:43:38;;;;;;;7.30;4.90;;;;;;;27.84;41.68;96212.06;5029586;28;24482;-74
2022/07/24 08:46:10;;;;;;;7.20;5.20;;;;;;;27.77;42.51;96201.38;5031095;28;24447;-74
2022/07/24 08:48:38;;;;;;;8.73;5.07;;;;;;;27.79;40.98;96211.84;5030669;28;24535;-73
2022/07/24 08:51:05;;;;;;;6.70;4.55;;;;;;;27.49;42.18;96211.97;5031683;28;24447;-73
2022/07/24 08:53:31;;;;;;;7.55;4.80;;;;;;;26.92;43.65;96218.09;5030893;28;24505;-73
2022/07/24 08:55:59;;;;;;;7.18;5.18;;;;;;;26.52;44.02;96223.78;5029092;28;24447;-73
2022/07/24 08:58:25;;;;;;;5.63;4.77;;;;;;;26.49;44.44;96220.66;5028243;28;24451;-73
2022/07/24 09:00:52;;;;;;;5.63;4.68;;;;;;;26.34;45.44;96222.47;5026971;28;24448;-73
2022/07/24 09:03:19;;;;;;;8.10;4.73;;;;;;;26.21;45.76;96218.59;5030689;28;24522;-73
2022/07/24 09:05:57;;;;;;;5.57;5.00;;;;;;;26.23;45.22;96221.09;5026140;28;24455;-73
2022/07/24 09:08:24;;;;;;;5.47;4.70;;;;;;;26.11;45.40;96223.38;5022564;28;24448;-73
2022/07/24 09:10:56;;;;;;;5.72;4.30;;;;;;;26.18;46.82;96219.00;5030674;28;24428;-73
2022/07/24 09:13:26;;;;;;;9.17;4.77;;;;;;;26.02;46.46;96219.97;5031579;28;25019;-73
2022/07/24 09:15:53;;;;;;;6.60;4.85;;;;;;;26.24;47.13;96218.25;5029724;28;24996;-73
2022/07/24 09:18:28;;;;;;;6.50;4.68;;;;;;;26.66;45.58;96216.78;5034638;28;24448;-73
2022/07/24 09:20:55;;;;;;;5.93;4.93;;;;;;;27.21;45.41;96228.66;5035146;28;24523;-73
2022/07/24 09:23:22;;;;;;;5.82;5.10;;;;;;;27.62;43.45;96227.22;5029597;28;24534;-74
2022/07/24 09:25:52;;;;;;;8.63;5.38;;;;;;;27.76;43.16;96221.03;5031647;28;24439;-74
2022/07/24 09:28:19;;;;;;;9.50;4.85;;;;;;;28.44;41.75;96218.63;5034354;28;24518;-73
2022/07/24 09:30:47;;;;;;;6.93;4.70;;;;;;;28.20;41.26;96220.72;5034668;28;24509;-73
2022/07/24 09:33:16;;;;;;;8.32;5.00;;;;;;;28.16;40.74;96218.66;5034665;28;24454;-74
2022/07/24 09:35:46;;;;;;;6.20;4.60;;;;;;;28.91;40.05;96214.31;5032016;28;24463;-73
2022/07/24 09:38:14;;;;;;;5.90;4.60;;;;;;;28.90;39.49;96205.50;5034561;28;25004;-76
2022/07/24 09:40:42;;;;;;;6.95;4.60;;;;;;;28.87;41.05;96210.41;5033196;28;24447;-74
2022/07/24 09:43:18;;;;;;;8.20;5.15;;;;;;;29.37;39.03;96206.47;5035138;28;24490;-73
2022/07/24 09:46:01;;;;;;;5.45;4.50;;;;;;;29.09;41.17;96203.13;5027026;28;24447;-73
2022/07/24 09:48:31;;;;;;;7.93;4.50;;;;;;;29.67;38.85;96208.78;5033173;28;24432;-73
2022/07/24 09:51:01;;;;;;;6.38;4.63;;;;;;;29.73;37.49;96207.13;5022898;28;24437;-73
2022/07/24 09:53:29;;;;;;;5.57;4.70;;;;;;;29.93;40.12;96205.28;5030507;28;24527;-73
2022/07/24 09:56:05;;;;;;;6.93;4.78;;;;;;;30.55;39.07;96211.13;5030409;28;24802;-73
2022/07/24 09:58:33;;;;;;;9.27;5.30;;;;;;;29.41;38.07;96213.03;5034207;28;24513;-73
2022/07/24 10:01:01;;;;;;;6.63;5.10;;;;;;;29.10;38.57;96202.09;5029385;28;24830;-73
2022/07/24 10:03:30;;;;;;;7.03;5.03;;;;;;;29.57;37.86;96203.81;5026495;28;24518;-73
2022/07/24 10:06:02;;;;;;;7.10;5.05;;;;;;;29.52;38.20;96200.13;5031079;28;24447;-73
2022/07/24 10:08:29;;;;;;;7.72;5.35;;;;;;;29.99;40.07;96212.44;5032337;28;24439;-73
2022/07/24 10:10:56;;;;;;;8.32;5.22;;;;;;;28.65;39.85;96207.03;5033760;28;24447;-73
2022/07/24 10:13:24;;;;;;;7.75;4.80;;;;;;;28.14;40.60;96199.38;5033114;28;24984;-74
2022/07/24 10:16:11;;;;;;;7.05;4.80;;;;;;;27.69;41.90;96204.13;5029994;28;24444;-74
2022/07/24 10:18:47;;;;;;;7.75;4.55;;;;;;;27.89;41.86;96204.34;5033063;28;24451;-74
2022/07/24 10:21:18;;;;;;;7.15;4.95;;;;;;;28.13;43.69;96203.88;5034287;28;25075;-74
2022/07/24 10:24:08;;;;;;;7.40;4.75;;;;;;;28.03;41.70;96200.72;5025929;28;24794;-74
2022/07/24 10:26:36;;;;;;;7.38;5.70;;;;;;;28.21;41.66;96200.22;5010830;28;24436;-73
2022/07/24 10:29:07;;;;;;;6.95;5.45;;;;;;;27.72;42.36;96207.25;5033860;28;24432;-73
2022/07/24 10:31:35;;;;;;;7.35;5.40;;;;;;;27.35;42.82;96202.22;5027817;28;24439;-73
2022/07/24 10:34:05;;;;;;;6.30;5.07;;;;;;;27.63;43.08;96207.59;5033814;28;24440;-73
2022/07/24 10:36:40;;;;;;;5.82;4.82;;;;;;;27.67;43.34;96198.22;5033446;28;24431;-73
2022/07/24 10:39:15;;;;;;;6.90;4.78;;;;;;;27.62;43.21;96196.09;5027873;28;25009;-73
2022/07/24 10:41:42;;;;;;;6.55;5.07;;;;;;;27.80;42.06;96194.84;5030592;28;24443;-74
2022/07/24 10:44:17;;;;;;;7.00;5.15;;;;;;;28.59;41.90;96183.84;5023862;28;24448;-73
2022/07/24 10:47:05;;;;;;;6.78;5.38;;;;;;;28.58;40.55;96183.03;5029166;28;24448;-74
2022/07/24 10:49:46;;;;;;;6.53;4.85;;;;;;;28.89;40.47;96190.53;5033024;28;24447;-73
2022/07/24 10:52:25;;;;;;;5.95;5.00;;;;;;;29.01;40.34;96188.13;5028714;28;24473;-73
2022/07/24 10:55:24;;;;;;;7.03;5.25;;;;;;;29.01;40.45;96193.47;5029408;28;24440;-73
2022/07/24 10:57:55;;;;;;;6.80;4.85;;;;;;;29.13;39.33;96183.03;5029825;28;24522;-73
2022/07/24 11:00:24;;;;;;;6.65;4.78;;;;;;;28.50;39.69;96185.06;5030277;28;24428;-74
2022/07/24 11:02:59;;;;;;;6.35;4.80;;;;;;;28.50;41.06;96185.88;5021421;28;24444;-73
2022/07/24 11:05:31;;;;;;;5.55;4.97;;;;;;;28.85;39.50;96186.63;5029252;28;25072;-74
2022/07/24 11:08:33;;;;;;;7.30;5.35;;;;;;;28.65;40.46;96177.72;5032529;28;24521;-74
2022/07/24 11:11:07;;;;;;;9.50;6.82;;;;;;;28.86;40.39;96180.28;5002426;28;24845;-73
2022/07/24 11:13:51;;;;;;;7.93;4.88;;;;;;;28.69;40.43;96177.13;5032535;28;24431;-73
2022/07/24 11:16:26;;;;;;;8.03;6.23;;;;;;;29.02;41.79;96173.78;5028449;28;25016;-73
2022/07/24 11:19:31;;;;;;;8.50;5.75;;;;;;;29.16;39.93;96171.97;5032556;28;24444;-73
2022/07/24 11:22:09;;;;;;;7.28;5.03;;;;;;;29.52;42.02;96166.25;5030083;28;24471;-73
2022/07/24 11:24:41;;;;;;;5.95;5.40;;;;;;;29.47;39.59;96170.53;5030004;28;24439;-73
2022/07/24 11:27:16;;;;;;;6.65;5.03;;;;;;;29.53;40.10;96162.53;5032205;28;24467;-74
2022/07/24 11:29:42;;;;;;;6.40;5.00;;;;;;;30.23;39.95;96162.94;5031727;28;24527;-73
2022/07/24 11:32:13;;;;;;;7.00;5.30;;;;;;;30.22;39.21;96158.63;5029852;28;24443;-73
2022/07/24 11:34:43;;;;;;;5.93;5.32;;;;;;;30.29;37.48;96153.22;5031900;28;24476;-74
2022/07/24 11:37:09;;;;;;;9.07;5.95;;;;;;;30.22;38.16;96147.94;5031832;28;25083;-73
2022/07/24 11:39:40;;;;;;;6.90;5.25;;;;;;;30.22;37.71;96157.78;5026161;28;24446;-73